Time;durP1;ratioP1;P1;durP2;ratioP2;P2;SDS_P1;SDS_P2;PMS_P1;PMS_P2;Temp;Humidity;BMP_temperature;BMP_pressure;BME280_temperature;BME280_humidity;BME280_pressure;Samples;Min_cycle;Max_cycle;Signal;HPM_P1;HPM_P2
2024/01/25 00:05:00;;;;;;;11.13;5.18;;;;;;;14.39;85.29;101781.34;10562682;27;20079;-81
2024/01/25 00:10:22;;;;;;;11.63;4.03;;;;;;;14.35;86.25;101764.44;10562620;28;20055;-80
2024/01/25 00:15:45;;;;;;;11.77;4.57;;;;;;;14.40;85.21;101761.88;10574944;28;20043;-80
2024/01/25 00:21:09;;;;;;;12.15;5.07;;;;;;;14.45;85.27;101771.72;10590568;27;20043;-81
2024/01/25 00:26:32;;;;;;;14.57;4.55;;;;;;;14.51;86.00;101771.81;10576134;28;20116;-81
2024/01/25 00:31:54;;;;;;;9.60;4.57;;;;;;;14.60;86.54;101755.13;10590183;27;20054;-81
2024/01/25 00:37:19;;;;;;;9.05;4.15;;;;;;;14.59;89.13;101763.94;10560360;28;20047;-80
2024/01/25 00:42:44;;;;;;;8.23;4.28;;;;;;;14.52;91.18;101762.06;10533614;28;20044;-80
2024/01/25 00:48:09;;;;;;;11.50;6.78;;;;;;;14.47;92.31;101767.31;10550425;28;20040;-80
2024/01/25 00:53:34;;;;;;;10.57;5.07;;;;;;;14.44;93.80;101761.06;10558349;28;20056;-80
2024/01/25 00:58:57;;;;;;;5.28;3.45;;;;;;;14.48;91.20;101749.63;10575314;28;20093;-80
2024/01/25 01:04:20;;;;;;;11.13;4.50;;;;;;;14.61;80.61;101751.59;10589422;27;20048;-81
2024/01/25 01:09:45;;;;;;;10.63;4.63;;;;;;;14.60;77.43;101752.47;10575280;28;20803;-80
2024/01/25 01:15:08;;;;;;;9.75;3.85;;;;;;;14.62;75.37;101754.28;10588621;28;20079;-81
2024/01/25 01:20:31;;;;;;;8.48;3.58;;;;;;;14.49;75.56;101757.63;10575070;28;20081;-80
2024/01/25 01:25:55;;;;;;;8.65;3.80;;;;;;;14.41;75.73;101755.69;10588692;27;20056;-80
2024/01/25 01:31:19;;;;;;;8.65;3.78;;;;;;;14.36;72.72;101761.81;10588317;28;20036;-81
2024/01/25 01:36:44;;;;;;;6.47;3.08;;;;;;;14.27;72.23;101742.16;10587226;27;20040;-81
2024/01/25 01:42:10;;;;;;;6.03;3.38;;;;;;;13.96;73.03;101752.28;10532803;28;20055;-80
2024/01/25 01:47:32;;;;;;;5.82;3.60;;;;;;;13.85;72.42;101742.31;10567955;28;20623;-81
2024/01/25 01:52:55;;;;;;;7.97;4.30;;;;;;;13.97;71.51;101739.91;10588113;28;20495;-81
2024/01/25 01:58:21;;;;;;;8.38;3.72;;;;;;;14.01;74.49;101747.03;10588068;28;20059;-81
2024/01/25 02:03:44;;;;;;;10.90;4.00;;;;;;;14.01;78.47;101725.81;10584920;28;20044;-80
2024/01/25 02:09:09;;;;;;;7.90;4.13;;;;;;;14.20;79.90;101732.31;10568518;27;20130;-80
2024/01/25 02:14:33;;;;;;;6.38;3.72;;;;;;;14.38;83.05;101726.41;10580878;28;20074;-81
2024/01/25 02:19:56;;;;;;;9.25;3.78;;;;;;;14.33;84.44;101726.31;10580848;28;20043;-81
2024/01/25 02:25:20;;;;;;;7.80;3.88;;;;;;;14.33;84.97;101723.66;10581923;28;20047;-81
2024/01/25 02:30:42;;;;;;;7.50;3.67;;;;;;;14.41;83.13;101714.09;10579890;28;20127;-79
2024/01/25 02:36:06;;;;;;;7.28;3.80;;;;;;;14.47;81.75;101703.56;10551769;28;20506;-81
2024/01/25 02:41:32;;;;;;;5.55;3.55;;;;;;;14.52;81.33;101706.28;10579907;28;20517;-80
2024/01/25 02:46:55;;;;;;;10.10;3.97;;;;;;;14.55;81.33;101693.94;10579220;28;20044;-80
2024/01/25 02:52:18;;;;;;;8.40;3.83;;;;;;;14.53;81.57;101687.69;10579352;28;20147;-81
2024/01/25 02:57:42;;;;;;;8.90;3.45;;;;;;;14.53;82.30;101690.34;10565084;28;20058;-80
2024/01/25 03:03:06;;;;;;;8.02;3.35;;;;;;;14.46;82.99;101692.91;10559360;28;20594;-80
2024/01/25 03:08:30;;;;;;;8.32;3.35;;;;;;;14.46;82.61;101699.09;10578395;28;20127;-80
2024/01/25 03:13:56;;;;;;;10.95;3.85;;;;;;;14.34;84.33;101694.47;10591766;27;20059;-80
2024/01/25 03:19:20;;;;;;;8.40;3.63;;;;;;;14.29;85.05;101696.19;10564224;28;20052;-81
2024/01/25 03:24:44;;;;;;;9.63;4.47;;;;;;;14.16;85.96;101691.53;10576972;28;20036;-80
2024/01/25 03:30:09;;;;;;;9.68;4.40;;;;;;;14.15;86.39;101684.44;10563270;28;20492;-80
2024/01/25 03:35:33;;;;;;;8.25;4.57;;;;;;;13.95;86.81;101692.09;10563476;28;20044;-80
2024/01/25 03:41:06;;;;;;;6.00;3.33;;;;;;;14.00;86.30;101696.56;10561663;27;20071;-81
2024/01/25 03:46:30;;;;;;;9.57;3.60;;;;;;;14.16;83.82;101693.31;10576542;28;20047;-80
2024/01/25 03:51:52;;;;;;;8.50;3.33;;;;;;;14.20;82.99;101709.31;10562786;28;20043;-80
2024/01/25 03:57:15;;;;;;;9.23;4.00;;;;;;;14.00;85.62;101702.78;10576229;28;20036;-80
2024/01/25 04:02:39;;;;;;;6.35;3.25;;;;;;;14.11;85.38;101711.78;10576418;27;20143;-80
2024/01/25 04:08:02;;;;;;;8.70;4.07;;;;;;;14.19;84.77;101714.56;10557275;27;20554;-80
2024/01/25 04:13:25;;;;;;;9.55;3.90;;;;;;;14.22;84.55;101730.56;10520246;28;20047;-80
2024/01/25 04:18:49;;;;;;;6.03;3.50;;;;;;;14.25;84.06;101735.91;10507621;28;20044;-80
2024/01/25 04:24:11;;;;;;;6.30;3.30;;;;;;;14.28;82.76;101736.00;10575920;28;20487;-81
2024/01/25 04:29:33;;;;;;;13.60;3.67;;;;;;;14.20;83.26;101729.66;10573038;28;20100;-80
2024/01/25 04:34:57;;;;;;;5.00;3.35;;;;;;;14.06;84.78;101734.72;10560605;28;20097;-80
2024/01/25 04:40:20;;;;;;;8.38;3.00;;;;;;;14.02;85.49;101730.25;10546628;28;20047;-81
2024/01/25 04:45:42;;;;;;;9.15;3.90;;;;;;;14.14;83.99;101727.78;10575257;28;20467;-80
2024/01/25 04:51:06;;;;;;;10.18;3.40;;;;;;;14.11;83.57;101733.03;10557033;28;20051;-80
2024/01/25 04:56:29;;;;;;;6.72;3.58;;;;;;;14.04;85.06;101736.50;10560621;28;20055;-80
2024/01/25 05:01:55;;;;;;;6.18;3.38;;;;;;;14.06;85.47;101745.34;10560470;28;20571;-81
2024/01/25 05:07:19;;;;;;;10.80;3.58;;;;;;;13.99;87.43;101748.75;10560938;28;20075;-81
2024/01/25 05:12:41;;;;;;;7.45;4.10;;;;;;;14.00;87.74;101741.69;10575481;28;20044;-81
2024/01/25 05:18:04;;;;;;;6.10;3.35;;;;;;;14.03;87.86;101740.00;10575126;28;20078;-81
2024/01/25 05:23:28;;;;;;;7.05;3.72;;;;;;;14.08;87.38;101738.31;10575030;28;20480;-81
2024/01/25 05:28:51;;;;;;;5.30;3.22;;;;;;;14.13;86.91;101735.72;10588206;28;20040;-81
2024/01/25 05:34:13;;;;;;;3.35;2.85;;;;;;;14.20;86.15;101741.16;10575561;28;20142;-81
2024/01/25 05:39:40;;;;;;;9.07;4.07;;;;;;;14.28;85.82;101741.28;10578751;28;20051;-80
2024/01/25 05:45:03;;;;;;;7.10;3.70;;;;;;;14.41;85.05;101747.72;10581943;28;20071;-80
2024/01/25 05:50:26;;;;;;;5.07;3.60;;;;;;;14.53;84.99;101748.81;10581957;28;20155;-80
2024/01/25 05:55:50;;;;;;;22.15;14.43;;;;;;;14.67;85.83;101749.91;10594877;27;20101;-80
2024/01/25 06:01:12;;;;;;;8.93;5.70;;;;;;;14.71;88.89;101753.50;10547515;28;20112;-80
2024/01/25 06:06:35;;;;;;;8.73;5.43;;;;;;;14.76;90.84;101749.16;10581337;28;20104;-80
2024/01/25 06:11:58;;;;;;;12.40;7.43;;;;;;;14.96;90.98;101739.72;10581069;28;20055;-81
2024/01/25 06:17:24;;;;;;;6.65;5.03;;;;;;;14.84;90.06;101744.81;10580975;28;20054;-81
2024/01/25 06:22:52;;;;;;;9.75;5.30;;;;;;;14.62;86.15;101741.00;10566662;28;20101;-80
2024/01/25 06:28:22;;;;;;;8.38;4.93;;;;;;;15.80;75.92;101736.28;10580446;28;20116;-81
2024/01/25 06:33:46;;;;;;;26.80;15.35;;;;;;;18.44;53.71;101730.41;10573407;28;20139;-81
2024/01/25 06:39:09;;;;;;;22.38;12.85;;;;;;;19.61;48.65;101735.41;10579259;28;20058;-81
2024/01/25 06:44:33;;;;;;;15.32;9.25;;;;;;;20.16;46.25;101742.13;10566103;28;20059;-81
2024/01/25 06:49:56;;;;;;;24.67;17.50;;;;;;;20.92;44.72;101736.06;10575178;28;20488;-82
2024/01/25 06:55:18;;;;;;;17.90;11.77;;;;;;;21.00;43.62;101739.53;10564816;28;20101;-82
2024/01/25 07:00:44;;;;;;;20.05;16.40;;;;;;;19.27;46.12;101734.66;10576814;28;20048;-82
2024/01/25 07:06:07;;;;;;;10.75;7.97;;;;;;;20.07;46.54;101734.19;10579354;28;20044;-82
2024/01/25 07:11:30;;;;;;;9.25;5.30;;;;;;;20.48;44.46;101720.41;10578841;28;20479;-81
2024/01/25 07:16:54;;;;;;;7.45;4.60;;;;;;;19.00;47.58;101736.53;10577870;27;20062;-82
2024/01/25 07:22:22;;;;;;;9.75;6.18;;;;;;;18.44;48.64;101733.06;10592188;27;20062;-82
2024/01/25 07:27:46;;;;;;;7.38;4.15;;;;;;;18.74;47.34;101733.03;10578031;28;20053;-82
2024/01/25 07:33:16;;;;;;;7.32;4.55;;;;;;;18.60;48.03;101729.50;10576741;28;20058;-82
2024/01/25 07:38:39;;;;;;;9.73;5.35;;;;;;;18.51;47.82;101716.13;10551305;28;20055;-83
2024/01/25 07:44:02;;;;;;;10.23;4.30;;;;;;;18.36;48.30;101726.84;10567649;27;20047;-85
2024/01/25 07:49:27;;;;;;;9.23;6.07;;;;;;;18.89;48.37;101733.00;10548641;28;20043;-84
2024/01/25 07:54:50;;;;;;;11.80;5.53;;;;;;;22.71;40.82;101715.47;10575814;28;20109;-85
2024/01/25 08:00:13;;;;;;;7.10;4.20;;;;;;;21.40;42.01;101712.22;10571743;28;20039;-84
2024/01/25 08:05:36;;;;;;;11.55;6.10;;;;;;;20.48;43.80;101727.59;10575361;28;20400;-86
2024/01/25 08:10:59;;;;;;;20.27;13.57;;;;;;;20.11;45.01;101727.88;10562036;28;20058;-87
2024/01/25 08:16:21;;;;;;;16.83;7.15;;;;;;;19.56;45.29;101740.75;10566782;28;20043;-88
2024/01/25 08:21:46;;;;;;;9.60;6.95;;;;;;;19.35;46.10;101743.53;10585265;27;20036;-86
2024/01/25 08:27:09;;;;;;;10.48;5.88;;;;;;;19.48;45.60;101746.19;10559524;28;20158;-89
2024/01/25 08:32:33;;;;;;;8.27;5.25;;;;;;;19.26;46.51;101741.78;10561753;28;20055;-87
2024/01/25 08:37:59;;;;;;;10.13;4.75;;;;;;;19.05;46.12;101744.53;10571744;28;20472;-89
2024/01/25 08:43:22;;;;;;;6.63;4.50;;;;;;;19.26;45.46;101740.88;10559284;28;20122;-87
2024/01/25 08:48:45;;;;;;;7.80;3.60;;;;;;;21.33;42.02;101734.72;10491273;28;20048;-85
2024/01/25 08:54:10;;;;;;;19.63;12.00;;;;;;;21.61;40.97;101737.91;10505281;28;20056;-86
2024/01/25 08:59:38;;;;;;;24.05;15.25;;;;;;;20.87;41.27;101737.03;10484878;28;20068;-87
2024/01/25 09:05:01;;;;;;;18.92;12.15;;;;;;;21.90;39.78;101734.78;10476621;28;20055;-87
2024/01/25 09:10:29;;;;;;;7.30;3.55;;;;;;;23.43;36.03;101727.44;10490774;28;20071;-88
2024/01/25 09:15:53;;;;;;;6.35;4.70;;;;;;;24.59;34.15;101706.66;10497425;28;20147;-88
2024/01/25 09:21:18;;;;;;;3.95;2.63;;;;;;;25.15;32.65;101706.88;10484031;28;20114;-88
2024/01/25 09:26:43;;;;;;;3.65;3.03;;;;;;;26.54;29.85;101711.44;10485737;28;20045;-88
2024/01/25 09:32:10;;;;;;;5.80;2.78;;;;;;;24.85;31.18;101707.75;10499299;28;20048;-88
2024/01/25 09:37:38;;;;;;;5.63;4.00;;;;;;;25.79;30.60;101707.66;10472493;28;20386;-89
2024/01/25 09:43:02;;;;;;;5.85;2.65;;;;;;;26.87;28.84;101712.91;10499213;28;20056;-89
2024/01/25 09:48:26;;;;;;;6.20;3.45;;;;;;;28.52;26.91;101715.38;10579154;28;20043;-89
2024/01/25 09:53:50;;;;;;;9.68;3.95;;;;;;;28.84;26.66;101689.50;10587632;27;20659;-89
2024/01/25 09:59:14;;;;;;;6.45;3.38;;;;;;;26.16;28.97;101680.25;10582091;28;20551;-88
2024/01/25 10:04:37;;;;;;;12.13;6.68;;;;;;;25.40;29.88;101680.00;10568329;28;20054;-88
2024/01/25 10:09:59;;;;;;;4.97;2.80;;;;;;;28.08;27.15;101671.09;10567633;27;20110;-89
2024/01/25 10:15:25;;;;;;;4.57;2.97;;;;;;;27.64;26.40;101662.06;10581767;28;20671;-88
2024/01/25 10:20:47;;;;;;;3.45;2.67;;;;;;;28.85;25.79;101670.41;10581338;28;20057;-88
2024/01/25 10:26:10;;;;;;;6.28;3.22;;;;;;;29.87;24.87;101656.44;10568383;27;20071;-88
2024/01/25 10:31:41;;;;;;;4.30;3.60;;;;;;;30.55;24.17;101652.94;10575042;28;20062;-85
2024/01/25 10:37:05;;;;;;;4.00;3.45;;;;;;;30.47;24.07;101657.88;10564124;28;20123;-87
2024/01/25 10:42:27;;;;;;;5.75;3.38;;;;;;;28.66;24.94;101644.09;10565610;27;20047;-87
2024/01/25 10:47:52;;;;;;;5.90;2.90;;;;;;;28.62;25.22;101628.91;10558467;27;20075;-84
2024/01/25 10:53:15;;;;;;;4.15;2.70;;;;;;;28.76;25.19;101618.28;10584388;27;20043;-86
2024/01/25 10:58:42;;;;;;;5.35;3.67;;;;;;;28.50;25.38;101620.31;10564894;27;20499;-86
2024/01/25 11:04:17;;;;;;;5.65;3.22;;;;;;;27.18;26.19;101612.34;10576121;27;20476;-84
2024/01/25 11:09:40;;;;;;;4.63;2.80;;;;;;;27.47;26.35;101608.47;10592398;27;20104;-85
2024/01/25 11:15:09;;;;;;;4.85;3.38;;;;;;;28.20;26.31;101593.66;10561907;28;20082;-86
2024/01/25 11:20:37;;;;;;;7.30;5.22;;;;;;;27.84;26.55;101583.41;10557618;28;20585;-85
2024/01/25 11:26:00;;;;;;;3.63;2.80;;;;;;;27.38;27.41;101584.41;10576208;28;20047;-86
2024/01/25 11:31:24;;;;;;;7.32;4.45;;;;;;;25.90;28.18;101582.81;10558904;28;20138;-86
2024/01/25 11:37:08;;;;;;;3.50;2.65;;;;;;;25.50;28.33;101569.72;10580946;28;20055;-88
2024/01/25 11:43:22;;;;;;;3.63;2.28;;;;;;;24.76;29.29;101560.31;10578311;28;20048;-86
2024/01/25 11:48:48;;;;;;;7.07;4.25;;;;;;;24.63;30.11;101554.41;10572376;28;20135;-87
2024/01/25 11:54:12;;;;;;;3.70;2.90;;;;;;;23.56;31.28;101558.28;10536967;28;20495;-85
2024/01/25 11:59:38;;;;;;;5.28;2.50;;;;;;;23.61;31.57;101541.97;10563044;28;20084;-89
2024/01/25 12:05:04;;;;;;;10.73;5.05;;;;;;;23.50;32.56;101538.66;10560261;28;20040;-89
2024/01/25 12:10:29;;;;;;;4.10;2.42;;;;;;;23.02;32.91;101541.59;10559679;27;20042;-87
2024/01/25 12:15:55;;;;;;;6.63;3.22;;;;;;;22.60;33.75;101538.00;10521164;27;20751;-87
2024/01/25 12:21:22;;;;;;;5.68;2.88;;;;;;;22.56;34.27;101529.13;10584495;27;20044;-89
2024/01/25 12:26:50;;;;;;;9.23;5.60;;;;;;;22.17;34.97;101524.56;10574251;28;20040;-86
2024/01/25 12:32:13;;;;;;;6.00;4.10;;;;;;;21.48;35.92;101522.22;10575491;27;20055;-87
2024/01/25 12:37:36;;;;;;;24.67;16.15;;;;;;;20.70;36.62;101530.56;10574730;28;20047;-88
2024/01/25 12:43:00;;;;;;;11.85;9.60;;;;;;;20.02;37.82;101518.84;10573525;28;20589;-86
2024/01/25 12:48:23;;;;;;;12.07;7.25;;;;;;;19.74;38.66;101529.00;10562892;27;20043;-87
2024/01/25 12:53:45;;;;;;;24.02;13.40;;;;;;;19.85;39.04;101511.00;10590925;28;20047;-87
2024/01/25 12:59:13;;;;;;;17.65;9.93;;;;;;;19.87;39.55;101509.19;10575802;28;20048;-88
2024/01/25 13:04:45;;;;;;;11.50;6.80;;;;;;;19.53;40.25;101509.53;10575057;28;20047;-88
2024/01/25 13:10:13;;;;;;;12.10;6.93;;;;;;;19.23;40.73;101516.03;10553517;28;20057;-87
2024/01/25 13:15:42;;;;;;;15.32;8.38;;;;;;;18.96;41.40;101512.66;10554253;28;20048;-87
2024/01/25 13:21:06;;;;;;;9.43;5.72;;;;;;;18.80;41.90;101510.97;10571511;28;20120;-87
2024/01/25 13:26:35;;;;;;;36.63;20.45;;;;;;;18.52;42.45;101514.63;10556366;28;20589;-88
2024/01/25 13:32:10;;;;;;;22.52;14.05;;;;;;;18.38;42.54;101508.50;10568387;28;20276;-84
2024/01/25 13:37:38;;;;;;;6.97;5.30;;;;;;;18.32;42.92;101496.91;10550013;28;20558;-84
2024/01/25 13:43:02;;;;;;;5.60;3.97;;;;;;;18.10;43.57;101499.69;10553983;28;20071;-87
2024/01/25 13:48:27;;;;;;;7.38;4.20;;;;;;;17.72;44.60;101489.09;10549515;28;20373;-86
2024/01/25 13:53:49;;;;;;;8.77;5.50;;;;;;;17.43;45.48;101481.97;10561387;28;20047;-85
2024/01/25 13:59:11;;;;;;;8.55;4.53;;;;;;;17.29;45.74;101478.44;10553544;28;20047;-85
2024/01/25 14:04:35;;;;;;;3.50;2.80;;;;;;;16.96;46.42;101471.31;10553191;28;20695;-85
2024/01/25 14:09:58;;;;;;;4.97;2.75;;;;;;;16.72;46.42;101471.28;10548365;28;20050;-84
2024/01/25 14:15:20;;;;;;;6.43;2.75;;;;;;;16.46;46.49;101464.97;10550323;28;20046;-82
2024/01/25 14:20:44;;;;;;;5.07;3.50;;;;;;;16.28;47.55;101465.78;10569113;28;20032;-83
2024/01/25 14:26:09;;;;;;;5.82;3.72;;;;;;;16.13;48.62;101465.75;10562819;28;20047;-84
2024/01/25 14:31:31;;;;;;;5.82;3.40;;;;;;;16.00;49.50;101450.59;10550486;28;20093;-84
2024/01/25 14:36:55;;;;;;;5.53;3.00;;;;;;;15.74;50.35;101445.13;10555514;28;20051;-84
2024/01/25 14:42:18;;;;;;;11.20;5.22;;;;;;;15.65;51.64;101437.09;10554807;28;20040;-82
2024/01/25 14:47:43;;;;;;;6.07;3.83;;;;;;;15.42;52.77;101437.81;10564564;27;20058;-81
2024/01/25 14:53:10;;;;;;;8.13;4.40;;;;;;;15.17;53.98;101435.84;10586208;27;20101;-81
2024/01/25 14:58:37;;;;;;;15.65;8.48;;;;;;;15.12;55.22;101443.78;10566559;28;20126;-81
2024/01/25 15:03:59;;;;;;;12.00;8.90;;;;;;;15.18;55.71;101442.06;10572370;28;20047;-81
2024/01/25 15:09:23;;;;;;;7.20;4.00;;;;;;;15.33;55.72;101442.19;10574576;28;20047;-80
2024/01/25 15:14:46;;;;;;;11.32;9.40;;;;;;;15.36;55.75;101436.88;10542662;28;20420;-81
2024/01/25 15:20:09;;;;;;;6.68;4.93;;;;;;;15.34;56.60;101439.53;10523269;28;20534;-81
2024/01/25 15:25:35;;;;;;;7.00;4.60;;;;;;;15.31;57.79;101435.94;10548196;28;20102;-82
2024/01/25 15:30:58;;;;;;;8.43;5.78;;;;;;;15.36;58.93;101442.22;10566548;27;20544;-81
2024/01/25 15:36:21;;;;;;;9.77;5.20;;;;;;;15.27;60.47;101439.47;10544663;28;20134;-81
2024/01/25 15:41:49;;;;;;;9.02;5.93;;;;;;;15.23;62.33;101435.03;10574054;28;20040;-82
2024/01/25 15:47:15;;;;;;;14.57;11.07;;;;;;;15.12;63.90;101433.16;10552365;28;20468;-81
2024/01/25 15:52:41;;;;;;;15.97;10.87;;;;;;;15.08;64.48;101436.69;10570581;28;20048;-81
2024/01/25 15:58:08;;;;;;;13.00;8.55;;;;;;;15.06;65.18;101438.44;10544463;28;20050;-82
2024/01/25 16:03:31;;;;;;;12.07;8.87;;;;;;;15.06;65.37;101449.06;10549429;28;20059;-82
2024/01/25 16:08:57;;;;;;;14.52;10.35;;;;;;;15.06;66.12;101442.84;10570141;28;20047;-82
2024/01/25 16:14:21;;;;;;;13.85;9.93;;;;;;;14.85;67.96;101448.88;10576081;27;20502;-82
2024/01/25 16:19:44;;;;;;;13.57;12.05;;;;;;;14.66;70.21;101461.09;10575596;27;20546;-81
2024/01/25 16:25:06;;;;;;;42.60;35.88;;;;;;;14.39;72.65;101459.91;10555247;28;20052;-82
2024/01/25 16:30:30;;;;;;;28.30;21.10;;;;;;;14.00;76.87;101457.63;10559273;28;20399;-81
2024/01/25 16:35:53;;;;;;;13.80;11.90;;;;;;;13.84;79.57;101457.44;10564837;28;20048;-82
2024/01/25 16:41:15;;;;;;;23.52;12.93;;;;;;;13.65;82.78;101463.38;10546807;28;20054;-82
2024/01/25 16:46:39;;;;;;;10.63;7.80;;;;;;;13.23;87.05;101460.97;10542049;28;20043;-82
2024/01/25 16:52:02;;;;;;;11.10;8.32;;;;;;;13.05;90.10;101461.53;10548553;28;20476;-81
2024/01/25 16:57:25;;;;;;;8.85;5.15;;;;;;;12.44;96.53;101454.22;10554659;28;20047;-79
2024/01/25 17:02:49;;;;;;;17.58;12.65;;;;;;;12.50;99.81;101459.63;10572759;28;20058;-83
2024/01/25 17:08:11;;;;;;;10.95;8.30;;;;;;;12.50;98.36;101458.75;10557008;28;20054;-81
2024/01/25 17:13:34;;;;;;;7.95;7.15;;;;;;;12.65;98.48;101462.59;10518425;28;20112;-79
2024/01/25 17:18:58;;;;;;;14.02;12.63;;;;;;;12.37;99.10;101465.56;10546873;28;20232;-83
2024/01/25 17:24:21;;;;;;;15.07;12.85;;;;;;;12.31;100.00;101453.09;10556021;28;20162;-79
2024/01/25 17:29:43;;;;;;;15.30;13.70;;;;;;;12.27;100.00;101439.78;10526671;28;20500;-80
2024/01/25 17:35:08;;;;;;;17.25;13.85;;;;;;;12.18;100.00;101437.84;10568676;28;20051;-82
2024/01/25 17:40:30;;;;;;;16.85;13.00;;;;;;;12.10;100.00;101444.72;10553977;28;20048;-82
2024/01/25 17:45:53;;;;;;;17.60;13.13;;;;;;;12.24;100.00;101443.25;10558299;28;20039;-82
2024/01/25 17:51:17;;;;;;;36.33;26.63;;;;;;;12.28;100.00;101446.84;10572414;28;20043;-82
2024/01/25 17:56:40;;;;;;;19.88;15.95;;;;;;;12.12;100.00;101445.66;10568288;27;20043;-82
2024/01/25 18:02:06;;;;;;;30.70;22.38;;;;;;;11.98;100.00;101447.13;10565657;27;20043;-83
2024/01/25 18:07:30;;;;;;;23.75;20.88;;;;;;;11.58;100.00;101443.59;10565957;28;20053;-83
2024/01/25 18:12:52;;;;;;;13.05;8.90;;;;;;;11.61;100.00;101436.59;10567873;28;20628;-83
2024/01/25 18:18:15;;;;;;;14.18;11.10;;;;;;;11.73;100.00;101437.75;10567096;28;20040;-83
2024/01/25 18:23:40;;;;;;;17.67;13.68;;;;;;;11.74;100.00;101428.09;10546749;28;20040;-82
2024/01/25 18:29:02;;;;;;;12.40;9.10;;;;;;;11.78;100.00;101429.94;10556597;27;20055;-83
2024/01/25 18:34:24;;;;;;;14.23;11.23;;;;;;;11.99;100.00;101433.03;10561871;28;20040;-84
2024/01/25 18:39:48;;;;;;;15.80;11.18;;;;;;;11.94;100.00;101443.53;10574547;28;20051;-82
2024/01/25 18:45:11;;;;;;;32.00;22.85;;;;;;;11.97;100.00;101445.34;10563778;28;20056;-82
2024/01/25 18:50:34;;;;;;;19.20;14.77;;;;;;;11.91;100.00;101450.50;10561084;27;20051;-83
2024/01/25 18:55:59;;;;;;;22.42;16.08;;;;;;;11.95;100.00;101453.25;10560522;28;20051;-82
2024/01/25 19:01:22;;;;;;;12.50;11.20;;;;;;;12.06;100.00;101448.19;10565943;28;20101;-82
2024/01/25 19:06:51;;;;;;;28.80;23.73;;;;;;;12.03;100.00;101452.50;10562878;28;20113;-83
2024/01/25 19:12:14;;;;;;;20.25;17.17;;;;;;;12.04;100.00;101462.22;10571458;27;20541;-82
2024/01/25 19:17:37;;;;;;;20.92;17.08;;;;;;;12.03;100.00;101473.69;10556689;27;20048;-79
2024/01/25 19:22:59;;;;;;;14.95;12.57;;;;;;;12.02;100.00;101479.81;10565140;28;20493;-83
2024/01/25 19:28:23;;;;;;;10.18;7.10;;;;;;;12.00;100.00;101478.91;10561047;27;20048;-80
2024/01/25 19:33:46;;;;;;;17.30;12.75;;;;;;;12.03;99.90;101478.97;10561858;28;20040;-83
2024/01/25 19:39:09;;;;;;;12.18;10.45;;;;;;;11.98;99.70;101477.13;10556029;28;20051;-82
2024/01/25 19:44:33;;;;;;;17.48;10.82;;;;;;;12.02;100.00;101477.19;10578059;28;20483;-83
2024/01/25 19:49:55;;;;;;;15.65;12.18;;;;;;;12.01;100.00;101473.66;10580486;27;20051;-83
2024/01/25 19:55:18;;;;;;;13.07;10.25;;;;;;;11.91;100.00;101485.78;10560080;27;20063;-83
2024/01/25 20:00:43;;;;;;;10.52;7.70;;;;;;;11.92;100.00;101479.66;10562530;28;20043;-82
2024/01/25 20:06:15;;;;;;;12.23;7.80;;;;;;;11.76;100.00;101466.94;10578894;27;20047;-83
2024/01/25 20:11:38;;;;;;;8.90;6.68;;;;;;;11.74;100.00;101459.84;10535042;28;20051;-85
2024/01/25 20:17:02;;;;;;;10.23;9.32;;;;;;;11.80;100.00;101463.50;10553257;27;20342;-85
2024/01/25 20:22:25;;;;;;;23.88;15.30;;;;;;;11.84;100.00;101460.06;10543966;28;20056;-84
2024/01/25 20:27:48;;;;;;;10.35;7.30;;;;;;;11.77;100.00;101450.22;10578668;27;20040;-85
2024/01/25 20:33:12;;;;;;;33.90;25.00;;;;;;;11.36;100.00;101443.94;10569931;27;20048;-83
2024/01/25 20:38:34;;;;;;;22.73;17.83;;;;;;;11.14;100.00;101439.94;10545653;28;20092;-83
2024/01/25 20:43:58;;;;;;;16.17;9.63;;;;;;;10.90;100.00;101446.31;10559733;28;20054;-83
2024/01/25 20:49:22;;;;;;;7.88;5.40;;;;;;;10.87;100.00;101428.69;10573917;28;20054;-83
2024/01/25 20:54:46;;;;;;;8.93;6.45;;;;;;;10.88;100.00;101448.97;10557377;28;20063;-82
2024/01/25 21:00:11;;;;;;;13.27;6.93;;;;;;;10.88;100.00;101441.03;10569767;28;20047;-84
2024/01/25 21:05:35;;;;;;;11.13;5.97;;;;;;;10.81;100.00;101428.53;10561542;28;20051;-83
2024/01/25 21:10:59;;;;;;;10.25;7.28;;;;;;;10.66;100.00;101431.66;10568608;28;20051;-83
2024/01/25 21:16:21;;;;;;;8.30;5.55;;;;;;;10.70;100.00;101429.97;10541654;28;20051;-82
2024/01/25 21:21:45;;;;;;;6.15;4.45;;;;;;;10.81;100.00;101415.31;10560995;27;20039;-82
2024/01/25 21:27:08;;;;;;;6.32;4.60;;;;;;;10.90;100.00;101401.44;10581848;28;20450;-82
2024/01/25 21:32:31;;;;;;;18.85;7.28;;;;;;;10.84;100.00;101388.06;10550800;27;20099;-82
2024/01/25 21:37:55;;;;;;;5.60;3.65;;;;;;;11.07;100.00;101398.34;10620166;27;20047;-82
2024/01/25 21:43:18;;;;;;;9.90;5.00;;;;;;;11.22;100.00;101399.56;10620050;27;20075;-82
2024/01/25 21:48:40;;;;;;;10.07;6.88;;;;;;;10.90;100.00;101383.84;10573422;28;20101;-82
2024/01/25 21:54:05;;;;;;;25.92;16.80;;;;;;;10.87;100.00;101377.59;10581828;28;20063;-82
2024/01/25 21:59:27;;;;;;;10.60;5.65;;;;;;;10.97;100.00;101398.09;10580136;28;20051;-82
2024/01/25 22:04:49;;;;;;;10.98;6.35;;;;;;;10.72;100.00;101389.56;10580052;28;20051;-81
2024/01/25 22:10:13;;;;;;;6.05;4.50;;;;;;;10.55;100.00;101384.72;10582149;28;20036;-82
2024/01/25 22:15:36;;;;;;;11.02;7.60;;;;;;;10.69;100.00;101394.78;10581364;28;20097;-82
2024/01/25 22:20:58;;;;;;;23.58;13.88;;;;;;;11.03;100.00;101385.91;10566704;28;20135;-82
2024/01/25 22:26:25;;;;;;;6.05;4.68;;;;;;;10.90;100.00;101381.19;10525400;28;20056;-82
2024/01/25 22:31:47;;;;;;;4.50;3.38;;;;;;;10.78;100.00;101373.88;10565522;28;20051;-82
2024/01/25 22:37:10;;;;;;;7.55;4.07;;;;;;;10.75;100.00;101367.63;10564820;28;20415;-82
2024/01/25 22:42:34;;;;;;;7.63;4.80;;;;;;;10.76;100.00;101358.88;10546557;28;20258;-82
2024/01/25 22:47:57;;;;;;;6.65;4.93;;;;;;;11.04;100.00;101363.03;10562926;28;20457;-82
2024/01/25 22:53:21;;;;;;;7.30;5.13;;;;;;;11.51;100.00;101354.41;10565123;28;20043;-83
2024/01/25 22:58:45;;;;;;;4.25;3.20;;;;;;;11.80;100.00;101340.94;10552908;28;20039;-82
2024/01/25 23:04:08;;;;;;;12.48;7.45;;;;;;;12.06;100.00;101346.72;10548409;28;20043;-83
2024/01/25 23:09:30;;;;;;;5.18;4.00;;;;;;;12.26;100.00;101342.69;10558111;28;20579;-83
2024/01/25 23:14:54;;;;;;;14.40;11.23;;;;;;;12.58;100.00;101337.97;10553976;28;20040;-82
2024/01/25 23:20:16;;;;;;;4.50;3.65;;;;;;;12.65;100.00;101338.09;10563551;28;20044;-83
2024/01/25 23:25:40;;;;;;;6.70;4.00;;;;;;;12.85;100.00;101334.84;10555933;28;20128;-82
2024/01/25 23:31:04;;;;;;;9.00;5.57;;;;;;;13.05;100.00;101336.06;10576174;28;20055;-83
2024/01/25 23:36:27;;;;;;;10.15;6.60;;;;;;;13.00;100.00;101324.47;10577349;28;20055;-83
2024/01/25 23:41:50;;;;;;;7.03;4.95;;;;;;;12.88;100.00;101319.00;10563455;28;20144;-82
2024/01/25 23:47:14;;;;;;;4.70;3.08;;;;;;;13.01;100.00;101324.50;10575573;28;20140;-82
2024/01/25 23:52:36;;;;;;;5.70;3.50;;;;;;;13.15;100.00;101322.09;10562386;28;20063;-83
2024/01/25 23:57:59;;;;;;;4.93;3.25;;;;;;;13.14;100.00;101301.75;10576268;28;20111;-82
